IBE5YV LEMD-LPPR
Flight info
| Callsign | IBE5YV |
|---|---|
| Flight time | 0h 48m |
| Altitude | 30000 |
| Route | BARDI DCT RIVRO DCT PESUL |
| Aircraft | A320/M-SDE3FGHIRWY/LB1 |
Departure
| Time | 2026-05-05 16:00 |
|---|---|
| Airport | Adolfo Suárez Madrid–Barajas Airport (LEMD) |
Arrival
| Time | 2026-05-05 16:48 |
|---|---|
| Airport | Francisco de Sá Carneiro Airport (LPPR) |
| Time | Latitude | Longitude | Altitude | Speed | Heading |
|---|---|---|---|---|---|
| 2026-05-05 15:48 | 40.49309 | -3.58967 | 2022 ft | 0 kts | 269° |
| 2026-05-05 15:51 | 40.49310 | -3.58955 | 2032 ft | 4 kts | 268° |
| 2026-05-05 15:51 | 40.49312 | -3.58919 | 2028 ft | 4 kts | 255° |
| 2026-05-05 15:52 | 40.49323 | -3.58889 | 2033 ft | 4 kts | 214° |
| 2026-05-05 15:52 | 40.49334 | -3.58882 | 2032 ft | 0 kts | 180° |
| 2026-05-05 15:54 | 40.49314 | -3.58882 | 2033 ft | 3 kts | 180° |
| 2026-05-05 15:55 | 40.49259 | -3.58882 | 2022 ft | 7 kts | 177° |
| 2026-05-05 15:55 | 40.49237 | -3.58847 | 2026 ft | 5 kts | 120° |
| 2026-05-05 15:55 | 40.49235 | -3.58832 | 2029 ft | 2 kts | 99° |
| 2026-05-05 15:55 | 40.49234 | -3.58826 | 2027 ft | 0 kts | 99° |
| 2026-05-05 15:56 | 40.49235 | -3.58812 | 2026 ft | 6 kts | 85° |
| 2026-05-05 15:56 | 40.49240 | -3.58697 | 2026 ft | 14 kts | 89° |
| 2026-05-05 15:57 | 40.49241 | -3.58578 | 2027 ft | 13 kts | 90° |
| 2026-05-05 15:57 | 40.49241 | -3.58453 | 2015 ft | 15 kts | 90° |
| 2026-05-05 15:57 | 40.49241 | -3.58270 | 2010 ft | 24 kts | 89° |
| 2026-05-05 15:57 | 40.49242 | -3.58082 | 2004 ft | 19 kts | 90° |
| 2026-05-05 15:58 | 40.49243 | -3.57912 | 1998 ft | 19 kts | 90° |
| 2026-05-05 15:58 | 40.49244 | -3.57726 | 1991 ft | 22 kts | 91° |
| 2026-05-05 15:58 | 40.49275 | -3.57536 | 1986 ft | 21 kts | 53° |
| 2026-05-05 15:58 | 40.49399 | -3.57454 | 1984 ft | 21 kts | 13° |
| 2026-05-05 15:59 | 40.49502 | -3.57454 | 1986 ft | 28 kts | 357° |
| 2026-05-05 15:59 | 40.49734 | -3.57456 | 1985 ft | 73 kts | 2° |
| 2026-05-05 15:59 | 40.50463 | -3.57462 | 1993 ft | 133 kts | 360° |
| 2026-05-05 15:59 | 40.51548 | -3.57462 | 2134 ft | 167 kts | 356° |
| 2026-05-05 16:00 | 40.52692 | -3.57458 | 2852 ft | 166 kts | 353° |
| 2026-05-05 16:00 | 40.53869 | -3.57486 | 3520 ft | 176 kts | 354° |
| 2026-05-05 16:00 | 40.55178 | -3.57576 | 3753 ft | 201 kts | 344° |
| 2026-05-05 16:00 | 40.56410 | -3.58475 | 4314 ft | 206 kts | 307° |
| 2026-05-05 16:01 | 40.57024 | -3.60183 | 5136 ft | 210 kts | 291° |
| 2026-05-05 16:01 | 40.57810 | -3.61804 | 5941 ft | 214 kts | 314° |
| 2026-05-05 16:01 | 40.58951 | -3.63074 | 6804 ft | 217 kts | 321° |
| 2026-05-05 16:01 | 40.60182 | -3.64247 | 7618 ft | 220 kts | 322° |
| 2026-05-05 16:02 | 40.61434 | -3.65428 | 8447 ft | 223 kts | 321° |
| 2026-05-05 16:02 | 40.62680 | -3.66667 | 9246 ft | 226 kts | 314° |
| 2026-05-05 16:02 | 40.63635 | -3.68303 | 10003 ft | 226 kts | 293° |
| 2026-05-05 16:02 | 40.64041 | -3.70372 | 10411 ft | 246 kts | 271° |
| 2026-05-05 16:03 | 40.64016 | -3.72735 | 10740 ft | 270 kts | 268° |
| 2026-05-05 16:03 | 40.63966 | -3.75323 | 11035 ft | 295 kts | 268° |
| 2026-05-05 16:03 | 40.63911 | -3.78137 | 11294 ft | 318 kts | 269° |
| 2026-05-05 16:03 | 40.63855 | -3.81147 | 11584 ft | 338 kts | 269° |
| 2026-05-05 16:04 | 40.63802 | -3.84281 | 12223 ft | 345 kts | 269° |
| 2026-05-05 16:04 | 40.63751 | -3.87462 | 12983 ft | 350 kts | 269° |
| 2026-05-05 16:04 | 40.63700 | -3.90644 | 13721 ft | 354 kts | 269° |
| 2026-05-05 16:04 | 40.63646 | -3.93890 | 14403 ft | 357 kts | 269° |
| 2026-05-05 16:05 | 40.63589 | -3.97170 | 15086 ft | 360 kts | 269° |
| 2026-05-05 16:05 | 40.63530 | -4.00530 | 15778 ft | 363 kts | 270° |
| 2026-05-05 16:05 | 40.63471 | -4.03816 | 16434 ft | 366 kts | 270° |
| 2026-05-05 16:05 | 40.63413 | -4.07183 | 17072 ft | 369 kts | 270° |
| 2026-05-05 16:06 | 40.63353 | -4.10569 | 17698 ft | 372 kts | 270° |
| 2026-05-05 16:06 | 40.63290 | -4.14042 | 18309 ft | 375 kts | 270° |
| 2026-05-05 16:06 | 40.63225 | -4.17443 | 18842 ft | 378 kts | 270° |
| 2026-05-05 16:06 | 40.63160 | -4.20906 | 19432 ft | 379 kts | 270° |
| 2026-05-05 16:07 | 40.63116 | -4.23254 | 19851 ft | 379 kts | 270° |
| 2026-05-05 16:07 | 40.63050 | -4.26722 | 20460 ft | 379 kts | 270° |
| 2026-05-05 16:07 | 40.62983 | -4.30189 | 21066 ft | 380 kts | 270° |
| 2026-05-05 16:07 | 40.62914 | -4.33674 | 21646 ft | 380 kts | 270° |
| 2026-05-05 16:08 | 40.62848 | -4.37124 | 22210 ft | 381 kts | 270° |
| 2026-05-05 16:08 | 40.62776 | -4.40639 | 22773 ft | 382 kts | 270° |
| 2026-05-05 16:08 | 40.62699 | -4.44125 | 23316 ft | 382 kts | 270° |
| 2026-05-05 16:08 | 40.62621 | -4.47627 | 23797 ft | 383 kts | 270° |
| 2026-05-05 16:09 | 40.62463 | -4.51149 | 24218 ft | 386 kts | 265° |
| 2026-05-05 16:09 | 40.61853 | -4.54565 | 24647 ft | 392 kts | 255° |
| 2026-05-05 16:09 | 40.60725 | -4.57850 | 25061 ft | 399 kts | 245° |
| 2026-05-05 16:09 | 40.59125 | -4.60885 | 25473 ft | 405 kts | 239° |
| 2026-05-05 16:10 | 40.57426 | -4.63850 | 25885 ft | 406 kts | 239° |
| 2026-05-05 16:10 | 40.55729 | -4.66823 | 26286 ft | 407 kts | 239° |
| 2026-05-05 16:10 | 40.54035 | -4.69802 | 26658 ft | 408 kts | 239° |
| 2026-05-05 16:10 | 40.52336 | -4.72799 | 27020 ft | 409 kts | 240° |
| 2026-05-05 16:11 | 40.50632 | -4.75801 | 27375 ft | 411 kts | 240° |
| 2026-05-05 16:11 | 40.45834 | -4.85095 | 28384 ft | 405 kts | 252° |
| 2026-05-05 16:12 | 40.44954 | -4.88574 | 28710 ft | 400 kts | 261° |
| 2026-05-05 16:12 | 40.44697 | -4.95750 | 29624 ft | 392 kts | 278° |
| 2026-05-05 16:13 | 40.45848 | -5.06313 | 29978 ft | 388 kts | 278° |
| 2026-05-05 16:13 | 40.46587 | -5.13329 | 29978 ft | 388 kts | 278° |
| 2026-05-05 16:14 | 40.48062 | -5.27379 | 29986 ft | 389 kts | 278° |
| 2026-05-05 16:15 | 40.49520 | -5.41409 | 29964 ft | 389 kts | 278° |
| 2026-05-05 16:16 | 40.50975 | -5.55519 | 29957 ft | 390 kts | 278° |
| 2026-05-05 16:17 | 40.52053 | -5.66120 | 29958 ft | 390 kts | 277° |
| 2026-05-05 16:18 | 40.53127 | -5.76734 | 29955 ft | 391 kts | 277° |
| 2026-05-05 16:19 | 40.54184 | -5.87390 | 29958 ft | 392 kts | 277° |
| 2026-05-05 16:19 | 40.55232 | -5.98052 | 29961 ft | 392 kts | 277° |
| 2026-05-05 16:20 | 40.56630 | -6.12302 | 29956 ft | 393 kts | 277° |
| 2026-05-05 16:22 | 40.58334 | -6.30134 | 29958 ft | 394 kts | 277° |
| 2026-05-05 16:23 | 40.59695 | -6.44394 | 29961 ft | 394 kts | 277° |
| 2026-05-05 16:23 | 40.60705 | -6.55140 | 29962 ft | 395 kts | 277° |
| 2026-05-05 16:24 | 40.61370 | -6.62298 | 29965 ft | 395 kts | 277° |
| 2026-05-05 16:25 | 40.62442 | -6.73082 | 29962 ft | 396 kts | 282° |
| 2026-05-05 16:25 | 40.64478 | -6.83634 | 29973 ft | 396 kts | 283° |
| 2026-05-05 16:26 | 40.65825 | -6.90707 | 29113 ft | 399 kts | 283° |
| 2026-05-05 16:26 | 40.67168 | -6.97764 | 28045 ft | 390 kts | 283° |
| 2026-05-05 16:27 | 40.67820 | -7.01185 | 27549 ft | 382 kts | 283° |
| 2026-05-05 16:27 | 40.68457 | -7.04536 | 27064 ft | 374 kts | 283° |
| 2026-05-05 16:27 | 40.69081 | -7.07830 | 26601 ft | 367 kts | 283° |
| 2026-05-05 16:27 | 40.69690 | -7.11056 | 26153 ft | 360 kts | 283° |
| 2026-05-05 16:28 | 40.70290 | -7.14237 | 25706 ft | 353 kts | 284° |
| 2026-05-05 16:28 | 40.70877 | -7.17351 | 25263 ft | 347 kts | 284° |
| 2026-05-05 16:28 | 40.71449 | -7.20381 | 24834 ft | 342 kts | 284° |
| 2026-05-05 16:28 | 40.72018 | -7.23409 | 24367 ft | 342 kts | 284° |
| 2026-05-05 16:29 | 40.72591 | -7.26467 | 23902 ft | 344 kts | 284° |
| 2026-05-05 16:29 | 40.73166 | -7.29538 | 23407 ft | 344 kts | 284° |
| 2026-05-05 16:29 | 40.73738 | -7.32590 | 22861 ft | 342 kts | 284° |
| 2026-05-05 16:29 | 40.74306 | -7.35617 | 22324 ft | 339 kts | 284° |
| 2026-05-05 16:30 | 40.74871 | -7.38628 | 21794 ft | 338 kts | 284° |
| 2026-05-05 16:30 | 40.75433 | -7.41633 | 21271 ft | 336 kts | 285° |
| 2026-05-05 16:30 | 40.75987 | -7.44620 | 20763 ft | 335 kts | 284° |
| 2026-05-05 16:30 | 40.76538 | -7.47592 | 20255 ft | 333 kts | 285° |
| 2026-05-05 16:31 | 40.77087 | -7.50553 | 19778 ft | 332 kts | 285° |
| 2026-05-05 16:31 | 40.77633 | -7.53511 | 19276 ft | 331 kts | 285° |
| 2026-05-05 16:31 | 40.78176 | -7.56457 | 18803 ft | 330 kts | 285° |
| 2026-05-05 16:31 | 40.78716 | -7.59394 | 18315 ft | 329 kts | 285° |
| 2026-05-05 16:32 | 40.79256 | -7.62326 | 17782 ft | 328 kts | 287° |
| 2026-05-05 16:32 | 40.79796 | -7.65243 | 17245 ft | 327 kts | 287° |
| 2026-05-05 16:32 | 40.80332 | -7.68151 | 16718 ft | 326 kts | 286° |
| 2026-05-05 16:32 | 40.80860 | -7.71019 | 16209 ft | 326 kts | 286° |
| 2026-05-05 16:33 | 40.81392 | -7.73919 | 15700 ft | 325 kts | 286° |
| 2026-05-05 16:33 | 40.81923 | -7.76822 | 15215 ft | 324 kts | 286° |
| 2026-05-05 16:33 | 40.82450 | -7.79709 | 14777 ft | 322 kts | 285° |
| 2026-05-05 16:33 | 40.82971 | -7.82580 | 14337 ft | 321 kts | 285° |
| 2026-05-05 16:34 | 40.83489 | -7.85442 | 13907 ft | 320 kts | 285° |
| 2026-05-05 16:34 | 40.84006 | -7.88297 | 13437 ft | 319 kts | 285° |
| 2026-05-05 16:34 | 40.84522 | -7.91149 | 12953 ft | 318 kts | 285° |
| 2026-05-05 16:34 | 40.85036 | -7.93988 | 12479 ft | 317 kts | 285° |
| 2026-05-05 16:35 | 40.85547 | -7.96812 | 12017 ft | 315 kts | 285° |
| 2026-05-05 16:35 | 40.86054 | -7.99612 | 11559 ft | 313 kts | 285° |
| 2026-05-05 16:35 | 40.86559 | -8.02409 | 11113 ft | 312 kts | 285° |
| 2026-05-05 16:35 | 40.87061 | -8.05194 | 10671 ft | 310 kts | 285° |
| 2026-05-05 16:36 | 40.87557 | -8.07949 | 10239 ft | 307 kts | 285° |
| 2026-05-05 16:36 | 40.88050 | -8.10689 | 9778 ft | 306 kts | 285° |
| 2026-05-05 16:36 | 40.88559 | -8.13417 | 9304 ft | 305 kts | 286° |
| 2026-05-05 16:36 | 40.89107 | -8.16103 | 8939 ft | 300 kts | 287° |
| 2026-05-05 16:37 | 40.89659 | -8.18713 | 8754 ft | 290 kts | 288° |
| 2026-05-05 16:37 | 40.90195 | -8.21229 | 8625 ft | 279 kts | 288° |
| 2026-05-05 16:37 | 40.90708 | -8.23650 | 8497 ft | 270 kts | 288° |
| 2026-05-05 16:37 | 40.91208 | -8.26033 | 8368 ft | 267 kts | 288° |
| 2026-05-05 16:38 | 40.91698 | -8.28396 | 8243 ft | 266 kts | 287° |
| 2026-05-05 16:38 | 40.92189 | -8.30768 | 7902 ft | 267 kts | 288° |
| 2026-05-05 16:38 | 40.92667 | -8.33081 | 7589 ft | 262 kts | 287° |
| 2026-05-05 16:38 | 40.93144 | -8.35398 | 7259 ft | 259 kts | 287° |
| 2026-05-05 16:39 | 40.93613 | -8.37688 | 6947 ft | 257 kts | 287° |
| 2026-05-05 16:39 | 40.94076 | -8.39957 | 6629 ft | 254 kts | 287° |
| 2026-05-05 16:39 | 40.94531 | -8.42189 | 6304 ft | 250 kts | 287° |
| 2026-05-05 16:39 | 40.94984 | -8.44409 | 5965 ft | 247 kts | 288° |
| 2026-05-05 16:40 | 40.95430 | -8.46592 | 5639 ft | 244 kts | 288° |
| 2026-05-05 16:40 | 40.95863 | -8.48716 | 5454 ft | 234 kts | 288° |
| 2026-05-05 16:40 | 40.96278 | -8.50757 | 5272 ft | 226 kts | 288° |
| 2026-05-05 16:40 | 40.96682 | -8.52737 | 5049 ft | 220 kts | 288° |
| 2026-05-05 16:41 | 40.97076 | -8.54675 | 4821 ft | 215 kts | 288° |
| 2026-05-05 16:41 | 40.97462 | -8.56577 | 4593 ft | 212 kts | 288° |
| 2026-05-05 16:41 | 40.97975 | -8.58378 | 4348 ft | 208 kts | 301° |
| 2026-05-05 16:41 | 40.98806 | -8.59921 | 4125 ft | 204 kts | 315° |
| 2026-05-05 16:42 | 40.99872 | -8.61099 | 3894 ft | 201 kts | 328° |
| 2026-05-05 16:42 | 41.01144 | -8.61896 | 3643 ft | 199 kts | 342° |
| 2026-05-05 16:42 | 41.02467 | -8.62298 | 3468 ft | 195 kts | 347° |
| 2026-05-05 16:42 | 41.03782 | -8.62640 | 3337 ft | 190 kts | 347° |
| 2026-05-05 16:43 | 41.05053 | -8.62969 | 3204 ft | 183 kts | 347° |
| 2026-05-05 16:43 | 41.06280 | -8.63289 | 3109 ft | 176 kts | 347° |
| 2026-05-05 16:43 | 41.07470 | -8.63601 | 3042 ft | 173 kts | 347° |
| 2026-05-05 16:43 | 41.08653 | -8.63910 | 3004 ft | 174 kts | 347° |
| 2026-05-05 16:44 | 41.09848 | -8.64219 | 2862 ft | 167 kts | 347° |
| 2026-05-05 16:44 | 41.10888 | -8.64490 | 2703 ft | 145 kts | 347° |
| 2026-05-05 16:44 | 41.11840 | -8.64734 | 2517 ft | 137 kts | 347° |
| 2026-05-05 16:44 | 41.12764 | -8.64973 | 2352 ft | 132 kts | 346° |
| 2026-05-05 16:45 | 41.13660 | -8.65207 | 2175 ft | 131 kts | 346° |
| 2026-05-05 16:45 | 41.14549 | -8.65436 | 1999 ft | 129 kts | 346° |
| 2026-05-05 16:45 | 41.15435 | -8.65670 | 1828 ft | 130 kts | 346° |
| 2026-05-05 16:45 | 41.16319 | -8.65901 | 1659 ft | 129 kts | 346° |
| 2026-05-05 16:46 | 41.17200 | -8.66129 | 1487 ft | 129 kts | 347° |
| 2026-05-05 16:46 | 41.18078 | -8.66360 | 1311 ft | 129 kts | 346° |
| 2026-05-05 16:46 | 41.18953 | -8.66597 | 1134 ft | 128 kts | 346° |
| 2026-05-05 16:46 | 41.19831 | -8.66825 | 965 ft | 129 kts | 347° |
| 2026-05-05 16:47 | 41.20706 | -8.67055 | 791 ft | 128 kts | 348° |
| 2026-05-05 16:47 | 41.21585 | -8.67273 | 596 ft | 128 kts | 347° |
| 2026-05-05 16:47 | 41.22458 | -8.67497 | 436 ft | 128 kts | 345° |
| 2026-05-05 16:47 | 41.23327 | -8.67732 | 276 ft | 127 kts | 346° |
| 2026-05-05 16:48 | 41.24141 | -8.67951 | 234 ft | 101 kts | 350° |
| 2026-05-05 16:48 | 41.24661 | -8.68084 | 238 ft | 52 kts | 349° |
| 2026-05-05 16:48 | 41.24842 | -8.68130 | 237 ft | 22 kts | 347° |
| 2026-05-05 16:48 | 41.25019 | -8.68164 | 234 ft | 27 kts | 353° |
| 2026-05-05 16:49 | 41.25190 | -8.68136 | 238 ft | 11 kts | 17° |
| 2026-05-05 16:49 | 41.25267 | -8.68101 | 234 ft | 12 kts | 33° |
| 2026-05-05 16:49 | 41.25265 | -8.68017 | 238 ft | 8 kts | 158° |
| 2026-05-05 16:49 | 41.25194 | -8.67994 | 235 ft | 15 kts | 168° |
| 2026-05-05 16:50 | 41.25057 | -8.67957 | 235 ft | 25 kts | 169° |
| 2026-05-05 16:50 | 41.24872 | -8.67904 | 237 ft | 27 kts | 156° |
| 2026-05-05 16:50 | 41.24707 | -8.67812 | 238 ft | 25 kts | 168° |
| 2026-05-05 16:50 | 41.24547 | -8.67770 | 237 ft | 17 kts | 168° |
| 2026-05-05 16:51 | 41.24434 | -8.67741 | 235 ft | 17 kts | 169° |
| 2026-05-05 16:51 | 41.24316 | -8.67707 | 235 ft | 16 kts | 152° |
| 2026-05-05 16:51 | 41.24240 | -8.67603 | 238 ft | 15 kts | 136° |
| 2026-05-05 16:51 | 41.24148 | -8.67560 | 235 ft | 14 kts | 169° |
| 2026-05-05 16:52 | 41.24058 | -8.67537 | 235 ft | 13 kts | 168° |
| 2026-05-05 16:52 | 41.23965 | -8.67512 | 235 ft | 16 kts | 168° |
| 2026-05-05 16:52 | 41.23853 | -8.67482 | 235 ft | 13 kts | 169° |
| 2026-05-05 16:52 | 41.23769 | -8.67458 | 238 ft | 12 kts | 160° |
| 2026-05-05 16:53 | 41.23717 | -8.67389 | 238 ft | 6 kts | 129° |
| 2026-05-05 16:53 | 41.23707 | -8.67356 | 236 ft | 5 kts | 96° |
| 2026-05-05 16:53 | 41.23718 | -8.67316 | 236 ft | 4 kts | 67° |
| 2026-05-05 16:53 | 41.23729 | -8.67277 | 236 ft | 2 kts | 69° |
| 2026-05-05 16:54 | 41.23732 | -8.67270 | 236 ft | 0 kts | 68° |